Charles B. Wheeler Downtown Airport
KMKC : now visible

Airfield :











YOU CAN JOIN US ON...

 
LOGIN :

Register | Disclaimer

   EN    FR    IT 

 









Legend :    VFR   Marginal VFR   IFR   Intensive IFR   Very Intensive IFR
Visi :
Ceiling :
>= 8 km
>= 3000ft
5 to 8 km
1000 to 3000 ft
1500m to 5 km
500 to 1000 ft
800 to 1500m
200 to 500 ft
< 800m
< 200 ft
Symbols :   Thunderstorms  Fog  Heavy snow  Heavy precipitations  Wind > 20 kt






- Airport Elevation : 759 ft
- IATA code : MKC


KMKC - Charles B. Wheeler Downtown

CURRENT METAR :
  • 080754Z 20009KT 10SM CLR 04/M02 A2995 RMK AO2 SLP145 T00391017

EXPIRED METARs :
  • 080654Z 20009KT 10SM CLR 05/M02 A2999 RMK AO2 SLP158 T00501022
  • 080554Z 22006KT 10SM CLR 04/M02 A3002 RMK AO2 SLP168 T00441022 10078 20044 401111033 56013

TAF KMKC
Valid from the 08 at 06:00 until the 09 at 06:00 UTC


080520Z 0806/0906 18009KT P6SM SCT250 WS020/22040KT
FM081200 19012KT P6SM SCT015
FM081500 19012KT P6SM OVC015
FM082300 16007KT P6SM OVC012



MET'MAP, your aeronautical weather chart ! - Copyright ORBIFLY December 2007 - Disclaimer

ORBIFLY MET'MAP TEAM :

Programming & Development : Alexandra Zaïnal
Concept & original design : Baudouin d'Aumeries
Assistance for programming : Marc-Olivier Méhu
Technical & hardware support : Manuel Goepfert

Contact : metmap@orbifly.com




SOURCES & CREDITS :

   NOAA       Earth
Advisory